createdAt,value
2022-11-05T00:02:39.740Z,8.80
2022-11-05T00:05:27.064Z,8.79
2022-11-05T00:08:13.100Z,8.78
2022-11-05T00:10:40.205Z,8.82
2022-11-05T00:13:28.340Z,8.80
2022-11-05T00:16:14.021Z,8.81
2022-11-05T00:18:41.002Z,8.81
2022-11-05T00:21:28.028Z,8.81
2022-11-05T00:24:14.184Z,8.78
2022-11-05T00:26:41.134Z,8.82
2022-11-05T00:29:08.121Z,8.83
2022-11-05T00:31:35.097Z,8.84
2022-11-05T00:34:02.062Z,8.86
2022-11-05T00:36:29.014Z,8.89
2022-11-05T00:38:55.945Z,8.87
2022-11-05T00:41:22.931Z,8.86
2022-11-05T00:44:08.450Z,8.91
2022-11-05T00:46:35.377Z,8.94
2022-11-05T00:49:20.918Z,8.97
2022-11-05T00:51:47.861Z,8.97
2022-11-05T00:54:14.922Z,8.98
2022-11-05T00:56:41.941Z,8.98
2022-11-05T00:59:08.887Z,8.99
2022-11-05T01:01:35.903Z,8.99
2022-11-05T01:04:03.188Z,8.99
2022-11-05T01:06:30.124Z,9.03
2022-11-05T01:08:57.074Z,9.07
2022-11-05T01:11:33.392Z,9.06
2022-11-05T01:14:03.618Z,9.10
2022-11-05T01:16:31.700Z,9.17
2022-11-05T01:18:58.867Z,9.19
2022-11-05T01:21:25.893Z,9.24
2022-11-05T01:23:53.505Z,9.31
2022-11-05T01:26:20.580Z,9.34
2022-11-05T01:28:55.191Z,9.35
2022-11-05T01:31:23.162Z,9.37
2022-11-05T01:33:50.304Z,9.42
2022-11-05T01:36:17.983Z,9.44
2022-11-05T01:38:44.958Z,9.41
2022-11-05T01:41:12.130Z,9.41
2022-11-05T01:43:58.730Z,9.38
2022-11-05T01:46:33.274Z,9.32
2022-11-05T01:49:10.082Z,9.28
2022-11-05T01:51:37.753Z,9.21
2022-11-05T01:54:10.185Z,9.17
2022-11-05T01:56:45.818Z,9.17
2022-11-05T01:59:17.980Z,9.21
2022-11-05T02:01:45.172Z,9.25
2022-11-05T02:04:17.763Z,9.25
2022-11-05T02:06:46.171Z,9.23
2022-11-05T02:09:29.058Z,9.26
2022-11-05T02:11:56.710Z,9.23
2022-11-05T02:14:24.052Z,9.23
2022-11-05T02:16:57.943Z,9.26
2022-11-05T02:20:02.443Z,9.28
2022-11-05T02:23:00.943Z,9.31
2022-11-05T02:25:46.570Z,9.37
2022-11-05T02:28:32.074Z,9.36
2022-11-05T02:31:05.111Z,9.19
2022-11-05T02:34:07.395Z,9.18
2022-11-05T02:36:43.365Z,9.15
2022-11-05T02:39:49.854Z,9.17
2022-11-05T02:42:35.189Z,9.17
2022-11-05T02:45:14.330Z,9.17
2022-11-05T02:47:46.540Z,9.18
2022-11-05T02:50:29.688Z,9.19
2022-11-05T02:53:40.592Z,9.25
2022-11-05T02:56:28.568Z,9.30
2022-11-05T02:58:55.541Z,9.32
2022-11-05T03:01:22.628Z,9.38
2022-11-05T03:03:57.960Z,9.42
2022-11-05T03:06:59.042Z,9.45
2022-11-05T03:09:35.106Z,9.47
2022-11-05T03:12:05.104Z,9.50
2022-11-05T03:14:39.789Z,9.44
2022-11-05T03:17:11.752Z,9.37
2022-11-05T03:19:53.634Z,9.39
2022-11-05T03:22:28.729Z,9.43
2022-11-05T03:25:01.326Z,9.43
2022-11-05T03:27:35.891Z,9.47
2022-11-05T03:30:07.580Z,9.49
2022-11-05T03:32:39.322Z,9.45
2022-11-05T03:35:15.984Z,9.41
2022-11-05T03:37:46.942Z,9.40
2022-11-05T03:40:18.052Z,9.44
2022-11-05T03:42:49.605Z,9.46
2022-11-05T03:45:32.247Z,9.47
2022-11-05T03:48:02.022Z,9.49
2022-11-05T03:50:58.762Z,9.50
2022-11-05T03:53:29.129Z,9.51
2022-11-05T03:56:13.659Z,9.53
2022-11-05T03:58:44.264Z,9.54
2022-11-05T04:01:12.018Z,9.57
2022-11-05T04:03:38.957Z,9.59
2022-11-05T04:06:25.850Z,9.60
2022-11-05T04:09:13.170Z,9.57
2022-11-05T04:11:59.037Z,9.59
2022-11-05T04:14:26.075Z,9.57
2022-11-05T04:17:11.169Z,9.57
2022-11-05T04:19:58.847Z,9.54
2022-11-05T04:22:46.383Z,9.53
2022-11-05T04:25:15.337Z,9.51
2022-11-05T04:27:42.318Z,9.53
2022-11-05T04:30:19.211Z,9.56
2022-11-05T04:33:06.524Z,9.59
2022-11-05T04:35:38.547Z,9.59
2022-11-05T04:38:08.200Z,9.59
2022-11-05T04:40:36.081Z,9.57
2022-11-05T04:43:03.820Z,9.56
2022-11-05T04:45:33.965Z,9.54
2022-11-05T04:48:02.656Z,9.44
2022-11-05T04:50:30.843Z,9.42
2022-11-05T04:52:58.523Z,9.45
2022-11-05T04:55:26.284Z,9.42
2022-11-05T04:57:54.192Z,9.47
2022-11-05T05:00:22.932Z,9.52
2022-11-05T05:02:50.179Z,9.50
2022-11-05T05:05:17.569Z,9.50
2022-11-05T05:07:44.585Z,9.50
2022-11-05T05:10:11.786Z,9.51
2022-11-05T05:12:38.794Z,9.50
2022-11-05T05:15:06.296Z,9.48
2022-11-05T05:17:33.630Z,9.47
2022-11-05T05:20:19.201Z,9.48
2022-11-05T05:22:55.681Z,9.46
2022-11-05T05:25:23.054Z,9.45
2022-11-05T05:27:50.282Z,9.44
2022-11-05T05:30:17.552Z,9.42
2022-11-05T05:32:44.611Z,9.45
2022-11-05T05:35:11.674Z,9.46
2022-11-05T05:37:38.848Z,9.47
2022-11-05T05:40:06.582Z,9.48
2022-11-05T05:42:37.470Z,9.52
2022-11-05T05:45:07.451Z,9.57
2022-11-05T05:47:34.453Z,9.61
2022-11-05T05:50:01.472Z,9.64
2022-11-05T05:52:28.472Z,9.64
2022-11-05T05:54:55.481Z,9.65
2022-11-05T05:57:22.514Z,9.66
2022-11-05T05:59:49.513Z,9.62
2022-11-05T06:02:16.763Z,9.64
2022-11-05T06:04:43.858Z,9.63
2022-11-05T06:07:10.918Z,9.60
2022-11-05T06:09:38.010Z,9.58
2022-11-05T06:12:05.479Z,9.58
2022-11-05T06:14:32.503Z,9.58
2022-11-05T06:16:59.489Z,9.58
2022-11-05T06:19:26.766Z,9.56
2022-11-05T06:21:53.807Z,9.60
2022-11-05T06:24:20.971Z,9.65
2022-11-05T06:26:48.097Z,9.67
2022-11-05T06:29:15.372Z,9.67
2022-11-05T06:31:42.438Z,9.67
2022-11-05T06:34:09.603Z,9.68
2022-11-05T06:36:36.580Z,9.69
2022-11-05T06:39:03.847Z,9.72
2022-11-05T06:41:30.827Z,9.72
2022-11-05T06:43:58.013Z,9.71
2022-11-05T06:46:25.073Z,9.69
2022-11-05T06:48:52.279Z,9.66
2022-11-05T06:51:19.313Z,9.70
2022-11-05T06:53:46.561Z,9.71
2022-11-05T06:56:13.816Z,9.76
2022-11-05T06:58:41.069Z,9.78
2022-11-05T07:01:10.209Z,9.79
2022-11-05T07:03:38.251Z,9.83
2022-11-05T07:06:07.258Z,9.80
2022-11-05T07:08:36.369Z,9.81
2022-11-05T07:11:04.169Z,9.82
2022-11-05T07:13:31.568Z,9.78
2022-11-05T07:15:58.968Z,9.80
2022-11-05T07:18:26.264Z,9.86
2022-11-05T07:20:53.559Z,9.92
2022-11-05T07:23:21.092Z,9.93
2022-11-05T07:25:48.469Z,9.97
2022-11-05T07:28:15.691Z,9.98
2022-11-05T07:30:43.015Z,10.04
2022-11-05T07:33:10.423Z,10.12
2022-11-05T07:35:37.893Z,10.14
2022-11-05T07:38:05.157Z,10.21
2022-11-05T07:40:32.528Z,10.32
2022-11-05T07:43:01.267Z,10.42
2022-11-05T07:45:30.182Z,10.47
2022-11-05T07:48:02.741Z,10.50
2022-11-05T07:50:32.823Z,10.54
2022-11-05T07:53:04.847Z,10.58
2022-11-05T07:55:33.262Z,10.65
2022-11-05T07:58:00.584Z,10.74
2022-11-05T08:00:29.321Z,10.80
2022-11-05T08:03:02.169Z,10.85
2022-11-05T08:05:36.521Z,10.88
2022-11-05T08:08:05.029Z,10.89
2022-11-05T08:10:33.705Z,11.00
2022-11-05T08:13:00.838Z,11.09
2022-11-05T08:15:28.303Z,11.18
2022-11-05T08:18:06.631Z,11.23
2022-11-05T08:20:34.895Z,11.33
2022-11-05T08:23:02.733Z,11.40
2022-11-05T08:25:30.671Z,11.48
2022-11-05T08:28:08.442Z,11.41
2022-11-05T08:30:36.028Z,11.26
2022-11-05T08:33:06.264Z,11.36
2022-11-05T08:35:35.962Z,11.44
2022-11-05T08:38:05.608Z,11.58
2022-11-05T08:40:35.121Z,11.56
2022-11-05T08:43:05.039Z,11.53
2022-11-05T08:45:33.816Z,11.57
2022-11-05T08:48:02.424Z,11.58
2022-11-05T08:50:31.845Z,11.52
2022-11-05T08:52:59.361Z,11.62
2022-11-05T08:55:27.413Z,11.56
2022-11-05T08:57:56.320Z,11.62
2022-11-05T09:00:23.548Z,11.53
2022-11-05T09:02:50.833Z,11.56
2022-11-05T09:05:18.062Z,11.60
2022-11-05T09:07:46.289Z,11.62
2022-11-05T09:10:13.483Z,11.65
2022-11-05T09:12:40.696Z,11.77
2022-11-05T09:15:08.980Z,11.84
2022-11-05T09:17:36.361Z,12.01
2022-11-05T09:20:06.586Z,12.19
2022-11-05T09:22:37.874Z,12.35
2022-11-05T09:25:08.338Z,12.47
2022-11-05T09:27:35.849Z,12.55
2022-11-05T09:30:04.681Z,12.67
2022-11-05T09:32:32.719Z,12.72
2022-11-05T09:35:00.758Z,12.69
2022-11-05T09:37:29.385Z,12.77
2022-11-05T09:39:57.421Z,12.82
2022-11-05T09:42:34.339Z,12.71
2022-11-05T09:45:15.198Z,12.83
2022-11-05T09:47:47.366Z,12.99
2022-11-05T09:50:32.261Z,13.09
2022-11-05T09:53:00.500Z,13.19
2022-11-05T09:55:32.764Z,13.26
2022-11-05T09:58:04.298Z,13.32
2022-11-05T10:00:33.604Z,13.36
2022-11-05T10:03:06.243Z,13.41
2022-11-05T10:05:34.362Z,13.47
2022-11-05T10:08:16.391Z,13.50
2022-11-05T10:10:55.607Z,13.64
2022-11-05T10:13:37.321Z,13.71
2022-11-05T10:16:32.177Z,13.85
2022-11-05T10:19:14.205Z,14.02
2022-11-05T10:22:05.589Z,14.14
2022-11-05T10:24:29.107Z,14.17
2022-11-05T10:26:57.363Z,14.37
2022-11-05T10:29:29.958Z,14.61
2022-11-05T10:32:01.175Z,14.84
2022-11-05T10:34:34.102Z,15.00
2022-11-05T10:37:01.704Z,15.04
2022-11-05T10:39:32.125Z,15.03
2022-11-05T10:42:05.354Z,15.02
2022-11-05T10:44:54.386Z,14.95
2022-11-05T10:47:50.396Z,14.82
2022-11-05T10:50:29.572Z,14.76
2022-11-05T10:53:14.777Z,14.69
2022-11-05T10:55:46.219Z,14.69
2022-11-05T10:58:13.335Z,14.72
2022-11-05T11:00:43.540Z,14.72
2022-11-05T11:03:34.431Z,14.65
2022-11-05T11:06:24.061Z,14.65
2022-11-05T11:08:55.028Z,14.58
2022-11-05T11:11:29.949Z,14.57
2022-11-05T11:13:57.140Z,14.52
2022-11-05T11:16:27.422Z,14.51
2022-11-05T11:19:00.512Z,14.54
2022-11-05T11:21:31.238Z,14.50
2022-11-05T11:24:08.933Z,14.48
2022-11-05T11:26:38.336Z,14.49
2022-11-05T11:29:14.203Z,14.57
2022-11-05T11:31:41.985Z,14.66
2022-11-05T11:34:20.466Z,14.68
2022-11-05T11:36:50.082Z,14.71
2022-11-05T11:39:23.497Z,14.77
2022-11-05T11:41:54.578Z,14.83
2022-11-05T11:44:26.901Z,14.81
2022-11-05T11:46:58.070Z,14.88
2022-11-05T11:49:43.909Z,14.91
2022-11-05T11:52:18.944Z,14.97
2022-11-05T11:54:46.252Z,15.07
2022-11-05T11:57:28.318Z,15.08
2022-11-05T12:00:14.084Z,14.97
2022-11-05T12:03:08.686Z,14.94
2022-11-05T12:06:01.290Z,14.88
2022-11-05T12:08:56.535Z,14.82
2022-11-05T12:11:34.820Z,14.75
2022-11-05T12:14:12.961Z,14.66
2022-11-05T12:17:10.282Z,14.57
2022-11-05T12:19:59.521Z,14.56
2022-11-05T12:22:45.207Z,14.49
2022-11-05T12:25:35.757Z,14.51
2022-11-05T12:28:11.797Z,14.51
2022-11-05T12:30:54.000Z,14.48
2022-11-05T12:33:45.613Z,14.42
2022-11-05T12:36:46.841Z,14.37
2022-11-05T12:39:23.038Z,14.21
2022-11-05T12:42:07.015Z,14.22
2022-11-05T12:44:48.150Z,14.18
2022-11-05T12:47:30.412Z,14.13
2022-11-05T12:50:16.615Z,14.08
2022-11-05T12:53:13.176Z,14.02
2022-11-05T12:55:48.355Z,13.98
2022-11-05T12:58:48.256Z,13.96
2022-11-05T13:01:27.212Z,13.94
2022-11-05T13:04:15.092Z,13.93
2022-11-05T13:06:48.737Z,13.92
2022-11-05T13:09:25.521Z,13.88
2022-11-05T13:11:58.395Z,13.88
2022-11-05T13:14:34.546Z,13.90
2022-11-05T13:17:24.508Z,13.93
2022-11-05T13:20:14.519Z,13.86
2022-11-05T13:22:48.151Z,13.83
2022-11-05T13:25:28.294Z,13.85
2022-11-05T13:28:17.118Z,13.85
2022-11-05T13:30:48.298Z,13.85
2022-11-05T13:33:27.589Z,13.84
2022-11-05T13:36:17.887Z,13.82
2022-11-05T13:39:06.413Z,13.75
2022-11-05T13:41:54.250Z,13.72
2022-11-05T13:44:59.063Z,13.62
2022-11-05T13:47:38.148Z,13.51
2022-11-05T13:50:36.269Z,13.53
2022-11-05T13:53:03.530Z,13.54
2022-11-05T13:55:49.214Z,13.52
2022-11-05T13:58:42.670Z,13.49
2022-11-05T14:01:24.338Z,13.47
2022-11-05T14:03:55.213Z,13.42
2022-11-05T14:06:33.703Z,13.43
2022-11-05T14:09:06.939Z,13.36
2022-11-05T14:11:40.759Z,13.33
2022-11-05T14:14:20.482Z,13.30
2022-11-05T14:16:47.677Z,13.27
2022-11-05T14:19:17.899Z,13.25
2022-11-05T14:21:52.655Z,13.22
2022-11-05T14:24:22.582Z,13.19
2022-11-05T14:27:01.963Z,13.17
2022-11-05T14:29:39.414Z,13.14
2022-11-05T14:32:24.610Z,13.08
2022-11-05T14:35:03.479Z,13.06
2022-11-05T14:37:36.436Z,13.01
2022-11-05T14:40:19.017Z,12.97
2022-11-05T14:42:51.505Z,12.94
2022-11-05T14:45:40.072Z,12.89
2022-11-05T14:48:23.629Z,12.88
2022-11-05T14:50:51.385Z,12.83
2022-11-05T14:53:30.667Z,12.80
2022-11-05T14:56:18.690Z,12.78
2022-11-05T14:58:46.425Z,12.75
2022-11-05T15:01:13.607Z,12.71
2022-11-05T15:03:45.864Z,12.66
2022-11-05T15:06:19.847Z,12.65
2022-11-05T15:08:49.737Z,12.67
2022-11-05T15:11:37.555Z,12.65
2022-11-05T15:14:30.297Z,12.60
2022-11-05T15:17:17.932Z,12.54
2022-11-05T15:19:46.761Z,12.53
2022-11-05T15:22:33.976Z,12.52
2022-11-05T15:25:03.994Z,12.49
2022-11-05T15:27:50.028Z,12.49
2022-11-05T15:30:19.864Z,12.52
2022-11-05T15:32:47.104Z,12.50
2022-11-05T15:35:23.028Z,12.46
2022-11-05T15:37:54.842Z,12.41
2022-11-05T15:40:29.693Z,12.35
2022-11-05T15:43:19.062Z,12.31
2022-11-05T15:45:59.213Z,12.29
2022-11-05T15:48:26.430Z,12.28
2022-11-05T15:50:53.759Z,12.25
2022-11-05T15:53:51.482Z,12.21
2022-11-05T15:56:38.468Z,12.17
2022-11-05T15:59:32.146Z,12.09
2022-11-05T16:02:18.018Z,12.05
2022-11-05T16:04:47.825Z,12.03
2022-11-05T16:07:15.828Z,12.00
2022-11-05T16:09:53.030Z,11.97
2022-11-05T16:12:20.375Z,11.94
2022-11-05T16:15:16.933Z,11.89
2022-11-05T16:17:50.897Z,11.90
2022-11-05T16:20:28.779Z,11.85
2022-11-05T16:22:59.005Z,11.83
2022-11-05T16:25:43.084Z,11.84
2022-11-05T16:28:23.492Z,11.85
2022-11-05T16:30:56.135Z,11.86
2022-11-05T16:33:25.627Z,11.85
2022-11-05T16:35:53.107Z,11.83
2022-11-05T16:38:20.579Z,11.82
2022-11-05T16:40:47.823Z,11.80
2022-11-05T16:43:21.622Z,11.81
2022-11-05T16:45:48.952Z,11.78
2022-11-05T16:48:16.461Z,11.75
2022-11-05T16:50:45.472Z,11.73
2022-11-05T16:53:13.287Z,11.68
2022-11-05T16:55:42.444Z,11.68
2022-11-05T16:58:20.738Z,11.70
2022-11-05T17:00:50.631Z,11.69
2022-11-05T17:03:18.322Z,11.68
2022-11-05T17:05:45.664Z,11.66
2022-11-05T17:08:13.046Z,11.61
2022-11-05T17:10:40.527Z,11.65
2022-11-05T17:13:12.688Z,11.70
2022-11-05T17:15:41.375Z,11.71
2022-11-05T17:18:13.982Z,11.67
2022-11-05T17:20:45.562Z,11.65
2022-11-05T17:23:15.290Z,11.63
2022-11-05T17:25:45.135Z,11.56
2022-11-05T17:28:13.326Z,11.57
2022-11-05T17:30:41.912Z,11.60
2022-11-05T17:33:10.749Z,11.62
2022-11-05T17:35:39.722Z,11.57
2022-11-05T17:38:07.045Z,11.59
2022-11-05T17:40:35.425Z,11.57
2022-11-05T17:43:03.035Z,11.58
2022-11-05T17:45:30.692Z,11.56
2022-11-05T17:47:57.901Z,11.57
2022-11-05T17:50:24.973Z,11.55
2022-11-05T17:52:51.933Z,11.56
2022-11-05T17:55:19.037Z,11.54
2022-11-05T17:57:48.493Z,11.54
2022-11-05T18:00:20.992Z,11.54
2022-11-05T18:02:49.131Z,11.53
2022-11-05T18:05:17.894Z,11.46
2022-11-05T18:07:46.302Z,11.44
2022-11-05T18:10:14.224Z,11.36
2022-11-05T18:12:41.356Z,11.32
2022-11-05T18:15:09.251Z,11.20
2022-11-05T18:17:36.334Z,11.13
2022-11-05T18:20:09.133Z,11.09
2022-11-05T18:22:38.499Z,11.06
2022-11-05T18:25:07.104Z,11.00
2022-11-05T18:27:34.862Z,11.00
2022-11-05T18:30:02.889Z,11.00
2022-11-05T18:32:30.078Z,10.96
2022-11-05T18:34:57.045Z,10.97
2022-11-05T18:37:24.085Z,10.97
2022-11-05T18:39:51.540Z,10.94
2022-11-05T18:42:20.155Z,10.83
2022-11-05T18:44:47.986Z,10.83
2022-11-05T18:47:15.219Z,10.85
2022-11-05T18:49:42.246Z,10.86
2022-11-05T18:52:09.261Z,10.89
2022-11-05T18:54:36.309Z,10.89
2022-11-05T18:57:03.561Z,10.91
2022-11-05T18:59:37.781Z,10.91
2022-11-05T19:02:07.332Z,10.92
2022-11-05T19:04:35.873Z,10.95
2022-11-05T19:07:05.518Z,10.93
2022-11-05T19:09:34.365Z,10.90
2022-11-05T19:12:02.265Z,10.90
2022-11-05T19:14:29.716Z,10.93
2022-11-05T19:16:57.853Z,10.94
2022-11-05T19:19:25.410Z,10.95
2022-11-05T19:21:52.693Z,10.95
2022-11-05T19:24:20.073Z,10.94
2022-11-05T19:26:47.594Z,10.85
2022-11-05T19:29:14.558Z,10.85
2022-11-05T19:31:41.787Z,10.82
2022-11-05T19:34:08.777Z,10.79
2022-11-05T19:36:35.837Z,10.74
2022-11-05T19:39:05.989Z,10.71
2022-11-05T19:41:33.025Z,10.72
2022-11-05T19:44:03.047Z,10.75
2022-11-05T19:46:30.786Z,10.75
2022-11-05T19:48:59.881Z,10.76
2022-11-05T19:51:29.741Z,10.74
2022-11-05T19:53:59.492Z,10.73
2022-11-05T19:56:32.136Z,10.69
2022-11-05T19:59:00.190Z,10.63
2022-11-05T20:01:28.820Z,10.60
2022-11-05T20:03:56.627Z,10.61
2022-11-05T20:06:30.836Z,10.58
2022-11-05T20:11:49.280Z,10.53
2022-11-05T20:14:16.512Z,10.47
2022-11-05T20:16:45.287Z,10.44
2022-11-05T20:19:13.586Z,10.43
2022-11-05T20:21:41.448Z,10.43
2022-11-05T20:24:11.325Z,10.36
2022-11-05T20:26:39.137Z,10.34
2022-11-05T20:29:06.276Z,10.32
2022-11-05T20:31:34.017Z,10.34
2022-11-05T20:34:01.114Z,10.33
2022-11-05T20:36:28.129Z,10.30
2022-11-05T20:39:02.318Z,10.29
2022-11-05T20:41:30.285Z,10.24
2022-11-05T20:43:57.518Z,10.19
2022-11-05T20:46:25.063Z,10.15
2022-11-05T20:48:53.460Z,10.13
2022-11-05T20:51:22.121Z,10.09
2022-11-05T20:53:54.462Z,10.07
2022-11-05T20:56:27.234Z,10.05
2022-11-05T20:58:57.427Z,10.02
2022-11-05T21:01:26.288Z,9.97
2022-11-05T21:03:53.634Z,9.95
2022-11-05T21:06:21.204Z,9.87
2022-11-05T21:08:49.962Z,9.82
2022-11-05T21:11:18.786Z,9.81
2022-11-05T21:13:46.201Z,9.80
2022-11-05T21:16:18.250Z,9.76
2022-11-05T21:18:46.758Z,9.72
2022-11-05T21:21:17.215Z,9.73
2022-11-05T21:23:44.667Z,9.73
2022-11-05T21:26:13.616Z,9.69
2022-11-05T21:28:41.426Z,9.66
2022-11-05T21:31:09.505Z,9.58
2022-11-05T21:33:37.204Z,9.57
2022-11-05T21:36:10.042Z,9.59
2022-11-05T21:38:37.967Z,9.58
2022-11-05T21:41:05.881Z,9.55
2022-11-05T21:43:33.574Z,9.48
2022-11-05T21:46:01.953Z,9.43
2022-11-05T21:48:29.405Z,9.37
2022-11-05T21:51:14.927Z,9.32
2022-11-05T21:54:00.457Z,9.25
2022-11-05T21:56:46.603Z,9.23
2022-11-05T21:59:35.236Z,9.14
2022-11-05T22:02:02.725Z,9.05
2022-11-05T22:04:31.707Z,8.91
2022-11-05T22:06:59.097Z,8.89
2022-11-05T22:09:26.833Z,8.86
2022-11-05T22:11:54.274Z,8.84
2022-11-05T22:14:21.312Z,8.80
2022-11-05T22:16:48.512Z,8.70
2022-11-05T22:19:15.548Z,8.64
2022-11-05T22:21:42.653Z,8.63
2022-11-05T22:24:10.104Z,8.62
2022-11-05T22:26:39.372Z,8.61
2022-11-05T22:29:06.901Z,8.53
2022-11-05T22:31:36.560Z,8.53
2022-11-05T22:34:05.561Z,8.52
2022-11-05T22:36:34.000Z,8.48
2022-11-05T22:39:01.748Z,8.45
2022-11-05T22:41:29.041Z,8.36
2022-11-05T22:43:56.962Z,8.32
2022-11-05T22:46:26.048Z,8.28
2022-11-05T22:48:53.595Z,8.27
2022-11-05T22:51:23.474Z,8.23
2022-11-05T22:53:50.627Z,8.19
2022-11-05T22:56:21.143Z,8.17
2022-11-05T22:58:49.070Z,8.08
2022-11-05T23:01:19.891Z,7.98
2022-11-05T23:03:49.243Z,7.97
2022-11-05T23:06:36.685Z,7.97
2022-11-05T23:09:25.477Z,7.97
2022-11-05T23:11:53.502Z,7.88
2022-11-05T23:14:20.545Z,7.87
2022-11-05T23:17:06.060Z,7.83
2022-11-05T23:19:51.750Z,7.73
2022-11-05T23:22:43.932Z,7.72
2022-11-05T23:25:16.531Z,7.69
2022-11-05T23:27:45.026Z,7.64
2022-11-05T23:30:21.038Z,7.60
2022-11-05T23:32:48.506Z,7.57
2022-11-05T23:35:16.307Z,7.53
2022-11-05T23:38:01.855Z,7.52
2022-11-05T23:40:51.156Z,7.51
2022-11-05T23:43:36.632Z,7.46
2022-11-05T23:46:22.007Z,7.40
2022-11-05T23:48:50.175Z,7.36
2022-11-05T23:51:17.380Z,7.31
2022-11-05T23:53:44.399Z,7.30
2022-11-05T23:56:14.547Z,7.28
2022-11-05T23:58:42.325Z,7.15
